sensor_id;sensor_type;location;lat;lon;timestamp;P1;durP1;ratioP1;P2;durP2;ratioP2
31734;SDS011;18313;48.518;9.124;2023-02-11T00:02:10;47.88;;;23.70;;
31734;SDS011;18313;48.518;9.124;2023-02-11T00:04:37;51.58;;;23.17;;
31734;SDS011;18313;48.518;9.124;2023-02-11T00:07:04;50.53;;;24.35;;
31734;SDS011;18313;48.518;9.124;2023-02-11T00:09:32;50.00;;;23.48;;
31734;SDS011;18313;48.518;9.124;2023-02-11T00:11:59;48.22;;;23.40;;
31734;SDS011;18313;48.518;9.124;2023-02-11T00:14:26;43.70;;;22.83;;
31734;SDS011;18313;48.518;9.124;2023-02-11T00:16:54;48.80;;;23.88;;
31734;SDS011;18313;48.518;9.124;2023-02-11T00:19:21;48.30;;;23.13;;
31734;SDS011;18313;48.518;9.124;2023-02-11T00:21:49;48.67;;;23.42;;
31734;SDS011;18313;48.518;9.124;2023-02-11T00:24:16;49.67;;;24.48;;
31734;SDS011;18313;48.518;9.124;2023-02-11T00:26:43;51.70;;;24.33;;
31734;SDS011;18313;48.518;9.124;2023-02-11T00:29:10;50.90;;;25.58;;
31734;SDS011;18313;48.518;9.124;2023-02-11T00:31:38;44.65;;;23.52;;
31734;SDS011;18313;48.518;9.124;2023-02-11T00:34:05;49.20;;;24.55;;
31734;SDS011;18313;48.518;9.124;2023-02-11T00:36:32;51.03;;;25.75;;
31734;SDS011;18313;48.518;9.124;2023-02-11T00:39:00;50.30;;;25.67;;
31734;SDS011;18313;48.518;9.124;2023-02-11T00:41:27;51.15;;;24.35;;
31734;SDS011;18313;48.518;9.124;2023-02-11T00:43:54;45.47;;;22.88;;
31734;SDS011;18313;48.518;9.124;2023-02-11T00:46:21;46.58;;;23.15;;
31734;SDS011;18313;48.518;9.124;2023-02-11T00:48:49;54.13;;;24.60;;
31734;SDS011;18313;48.518;9.124;2023-02-11T00:51:18;46.85;;;23.35;;
31734;SDS011;18313;48.518;9.124;2023-02-11T00:53:45;47.92;;;23.58;;
31734;SDS011;18313;48.518;9.124;2023-02-11T00:56:12;43.45;;;22.13;;
31734;SDS011;18313;48.518;9.124;2023-02-11T00:58:39;49.50;;;24.25;;
31734;SDS011;18313;48.518;9.124;2023-02-11T01:01:07;46.63;;;24.15;;
31734;SDS011;18313;48.518;9.124;2023-02-11T01:03:34;46.63;;;22.95;;
31734;SDS011;18313;48.518;9.124;2023-02-11T01:06:01;49.45;;;24.73;;
31734;SDS011;18313;48.518;9.124;2023-02-11T01:08:28;53.80;;;24.85;;
31734;SDS011;18313;48.518;9.124;2023-02-11T01:11:03;53.60;;;24.90;;
31734;SDS011;18313;48.518;9.124;2023-02-11T01:13:37;49.85;;;24.60;;
31734;SDS011;18313;48.518;9.124;2023-02-11T01:16:08;49.45;;;25.33;;
31734;SDS011;18313;48.518;9.124;2023-02-11T01:18:37;53.72;;;25.88;;
31734;SDS011;18313;48.518;9.124;2023-02-11T01:21:04;55.35;;;28.00;;
31734;SDS011;18313;48.518;9.124;2023-02-11T01:23:31;53.38;;;26.52;;
31734;SDS011;18313;48.518;9.124;2023-02-11T01:25:58;49.40;;;23.98;;
31734;SDS011;18313;48.518;9.124;2023-02-11T01:28:26;53.45;;;24.98;;
31734;SDS011;18313;48.518;9.124;2023-02-11T01:30:55;48.22;;;23.88;;
31734;SDS011;18313;48.518;9.124;2023-02-11T01:33:22;48.08;;;23.08;;
31734;SDS011;18313;48.518;9.124;2023-02-11T01:35:49;45.28;;;23.58;;
31734;SDS011;18313;48.518;9.124;2023-02-11T01:38:18;47.45;;;23.73;;
31734;SDS011;18313;48.518;9.124;2023-02-11T01:40:51;50.08;;;24.58;;
31734;SDS011;18313;48.518;9.124;2023-02-11T01:43:19;49.67;;;25.10;;
31734;SDS011;18313;48.518;9.124;2023-02-11T01:48:35;50.47;;;23.17;;
31734;SDS011;18313;48.518;9.124;2023-02-11T01:51:13;45.17;;;22.63;;
31734;SDS011;18313;48.518;9.124;2023-02-11T01:53:45;45.13;;;23.08;;
31734;SDS011;18313;48.518;9.124;2023-02-11T01:56:34;48.38;;;23.30;;
31734;SDS011;18313;48.518;9.124;2023-02-11T01:59:26;44.22;;;22.55;;
31734;SDS011;18313;48.518;9.124;2023-02-11T02:01:58;46.60;;;23.25;;
31734;SDS011;18313;48.518;9.124;2023-02-11T02:04:30;49.80;;;23.33;;
31734;SDS011;18313;48.518;9.124;2023-02-11T02:07:02;46.30;;;23.02;;
31734;SDS011;18313;48.518;9.124;2023-02-11T02:09:36;45.72;;;23.25;;
31734;SDS011;18313;48.518;9.124;2023-02-11T02:12:07;43.25;;;22.58;;
31734;SDS011;18313;48.518;9.124;2023-02-11T02:14:38;45.08;;;22.00;;
31734;SDS011;18313;48.518;9.124;2023-02-11T02:17:06;44.35;;;23.02;;
31734;SDS011;18313;48.518;9.124;2023-02-11T02:27:58;46.72;;;22.90;;
31734;SDS011;18313;48.518;9.124;2023-02-11T02:30:53;45.83;;;21.52;;
31734;SDS011;18313;48.518;9.124;2023-02-11T02:33:52;44.88;;;23.33;;
31734;SDS011;18313;48.518;9.124;2023-02-11T02:36:31;43.05;;;22.10;;
31734;SDS011;18313;48.518;9.124;2023-02-11T02:39:08;49.20;;;23.08;;
31734;SDS011;18313;48.518;9.124;2023-02-11T02:41:42;47.15;;;22.98;;
31734;SDS011;18313;48.518;9.124;2023-02-11T02:44:11;41.55;;;22.70;;
31734;SDS011;18313;48.518;9.124;2023-02-11T02:46:38;49.80;;;24.05;;
31734;SDS011;18313;48.518;9.124;2023-02-11T02:49:05;43.75;;;22.52;;
31734;SDS011;18313;48.518;9.124;2023-02-11T02:57:07;45.78;;;23.48;;
31734;SDS011;18313;48.518;9.124;2023-02-11T03:00:10;46.60;;;22.35;;
31734;SDS011;18313;48.518;9.124;2023-02-11T03:05:16;51.72;;;24.63;;
31734;SDS011;18313;48.518;9.124;2023-02-11T03:10:43;51.88;;;24.35;;
31734;SDS011;18313;48.518;9.124;2023-02-11T03:13:13;51.42;;;25.35;;
31734;SDS011;18313;48.518;9.124;2023-02-11T03:15:54;54.58;;;25.08;;
31734;SDS011;18313;48.518;9.124;2023-02-11T03:18:23;50.63;;;25.23;;
31734;SDS011;18313;48.518;9.124;2023-02-11T03:20:53;47.40;;;24.42;;
31734;SDS011;18313;48.518;9.124;2023-02-11T03:23:25;49.33;;;23.73;;
31734;SDS011;18313;48.518;9.124;2023-02-11T03:31:39;48.05;;;23.02;;
31734;SDS011;18313;48.518;9.124;2023-02-11T03:37:24;52.28;;;23.30;;
31734;SDS011;18313;48.518;9.124;2023-02-11T03:39:58;48.28;;;24.80;;
31734;SDS011;18313;48.518;9.124;2023-02-11T03:42:34;50.03;;;24.23;;
31734;SDS011;18313;48.518;9.124;2023-02-11T03:45:12;49.75;;;24.90;;
31734;SDS011;18313;48.518;9.124;2023-02-11T03:47:45;52.22;;;24.17;;
31734;SDS011;18313;48.518;9.124;2023-02-11T03:50:14;48.75;;;23.58;;
31734;SDS011;18313;48.518;9.124;2023-02-11T03:52:43;46.05;;;23.42;;
31734;SDS011;18313;48.518;9.124;2023-02-11T03:55:14;49.88;;;24.60;;
31734;SDS011;18313;48.518;9.124;2023-02-11T03:57:43;45.58;;;23.88;;
31734;SDS011;18313;48.518;9.124;2023-02-11T04:00:10;47.70;;;23.25;;
31734;SDS011;18313;48.518;9.124;2023-02-11T04:02:38;46.92;;;24.33;;
31734;SDS011;18313;48.518;9.124;2023-02-11T04:05:07;50.47;;;24.40;;
31734;SDS011;18313;48.518;9.124;2023-02-11T04:07:35;50.55;;;23.90;;
31734;SDS011;18313;48.518;9.124;2023-02-11T04:10:03;49.10;;;24.38;;
31734;SDS011;18313;48.518;9.124;2023-02-11T04:12:30;50.13;;;25.17;;
31734;SDS011;18313;48.518;9.124;2023-02-11T04:14:57;51.10;;;24.65;;
31734;SDS011;18313;48.518;9.124;2023-02-11T04:17:24;45.95;;;23.20;;
31734;SDS011;18313;48.518;9.124;2023-02-11T04:19:51;56.63;;;25.70;;
31734;SDS011;18313;48.518;9.124;2023-02-11T04:22:19;50.08;;;25.40;;
31734;SDS011;18313;48.518;9.124;2023-02-11T04:24:46;47.10;;;24.27;;
31734;SDS011;18313;48.518;9.124;2023-02-11T04:27:13;51.58;;;24.55;;
31734;SDS011;18313;48.518;9.124;2023-02-11T04:29:40;50.55;;;25.20;;
31734;SDS011;18313;48.518;9.124;2023-02-11T04:32:08;49.10;;;25.00;;
31734;SDS011;18313;48.518;9.124;2023-02-11T04:34:37;50.83;;;24.77;;
31734;SDS011;18313;48.518;9.124;2023-02-11T04:37:03;50.95;;;24.92;;
31734;SDS011;18313;48.518;9.124;2023-02-11T04:39:31;57.67;;;25.38;;
31734;SDS011;18313;48.518;9.124;2023-02-11T04:41:58;50.15;;;25.05;;
31734;SDS011;18313;48.518;9.124;2023-02-11T04:44:25;47.85;;;24.27;;
31734;SDS011;18313;48.518;9.124;2023-02-11T04:46:52;54.10;;;26.13;;
31734;SDS011;18313;48.518;9.124;2023-02-11T04:49:19;52.10;;;24.63;;
31734;SDS011;18313;48.518;9.124;2023-02-11T04:51:47;47.53;;;24.90;;
31734;SDS011;18313;48.518;9.124;2023-02-11T04:54:15;51.17;;;24.65;;
31734;SDS011;18313;48.518;9.124;2023-02-11T04:56:42;45.20;;;24.33;;
31734;SDS011;18313;48.518;9.124;2023-02-11T04:59:10;50.78;;;25.45;;
31734;SDS011;18313;48.518;9.124;2023-02-11T05:01:39;51.70;;;24.23;;
31734;SDS011;18313;48.518;9.124;2023-02-11T05:04:06;48.28;;;23.70;;
31734;SDS011;18313;48.518;9.124;2023-02-11T05:06:34;48.90;;;23.73;;
31734;SDS011;18313;48.518;9.124;2023-02-11T05:09:03;46.92;;;23.33;;
31734;SDS011;18313;48.518;9.124;2023-02-11T05:11:30;47.25;;;23.30;;
31734;SDS011;18313;48.518;9.124;2023-02-11T05:13:57;45.08;;;22.63;;
31734;SDS011;18313;48.518;9.124;2023-02-11T05:16:24;46.67;;;23.50;;
31734;SDS011;18313;48.518;9.124;2023-02-11T05:18:51;42.03;;;23.00;;
31734;SDS011;18313;48.518;9.124;2023-02-11T05:21:21;44.00;;;23.45;;
31734;SDS011;18313;48.518;9.124;2023-02-11T05:23:48;45.85;;;24.33;;
31734;SDS011;18313;48.518;9.124;2023-02-11T05:26:15;44.30;;;23.63;;
31734;SDS011;18313;48.518;9.124;2023-02-11T05:28:43;48.80;;;23.77;;
31734;SDS011;18313;48.518;9.124;2023-02-11T05:31:11;52.55;;;24.90;;
31734;SDS011;18313;48.518;9.124;2023-02-11T05:33:40;46.67;;;24.63;;
31734;SDS011;18313;48.518;9.124;2023-02-11T05:36:09;49.15;;;25.30;;
31734;SDS011;18313;48.518;9.124;2023-02-11T05:38:37;50.22;;;25.70;;
31734;SDS011;18313;48.518;9.124;2023-02-11T05:41:05;50.97;;;25.55;;
31734;SDS011;18313;48.518;9.124;2023-02-11T05:43:33;55.60;;;25.00;;
31734;SDS011;18313;48.518;9.124;2023-02-11T05:46:04;53.70;;;26.63;;
31734;SDS011;18313;48.518;9.124;2023-02-11T05:48:32;51.10;;;25.58;;
31734;SDS011;18313;48.518;9.124;2023-02-11T05:50:59;47.08;;;25.20;;
31734;SDS011;18313;48.518;9.124;2023-02-11T05:53:26;48.88;;;24.50;;
31734;SDS011;18313;48.518;9.124;2023-02-11T05:55:53;49.45;;;25.38;;
31734;SDS011;18313;48.518;9.124;2023-02-11T05:58:20;54.55;;;25.48;;
31734;SDS011;18313;48.518;9.124;2023-02-11T06:00:47;44.17;;;24.08;;
31734;SDS011;18313;48.518;9.124;2023-02-11T06:03:15;48.83;;;24.77;;
31734;SDS011;18313;48.518;9.124;2023-02-11T06:05:42;47.13;;;25.27;;
31734;SDS011;18313;48.518;9.124;2023-02-11T06:08:10;50.55;;;26.15;;
31734;SDS011;18313;48.518;9.124;2023-02-11T06:10:37;49.05;;;24.80;;
31734;SDS011;18313;48.518;9.124;2023-02-11T06:13:04;54.75;;;26.58;;
31734;SDS011;18313;48.518;9.124;2023-02-11T06:15:31;49.35;;;25.40;;
31734;SDS011;18313;48.518;9.124;2023-02-11T06:17:58;56.58;;;30.98;;
31734;SDS011;18313;48.518;9.124;2023-02-11T06:20:25;58.90;;;28.38;;
31734;SDS011;18313;48.518;9.124;2023-02-11T06:22:53;76.05;;;31.83;;
31734;SDS011;18313;48.518;9.124;2023-02-11T06:25:20;52.95;;;26.95;;
31734;SDS011;18313;48.518;9.124;2023-02-11T06:27:47;50.20;;;24.63;;
31734;SDS011;18313;48.518;9.124;2023-02-11T06:30:14;45.40;;;23.35;;
31734;SDS011;18313;48.518;9.124;2023-02-11T06:32:41;44.38;;;23.15;;
31734;SDS011;18313;48.518;9.124;2023-02-11T06:35:12;44.72;;;23.48;;
31734;SDS011;18313;48.518;9.124;2023-02-11T06:37:40;53.80;;;26.83;;
31734;SDS011;18313;48.518;9.124;2023-02-11T06:40:08;46.63;;;24.15;;
31734;SDS011;18313;48.518;9.124;2023-02-11T06:42:35;45.08;;;22.83;;
31734;SDS011;18313;48.518;9.124;2023-02-11T06:45:04;50.55;;;25.67;;
31734;SDS011;18313;48.518;9.124;2023-02-11T06:47:34;44.55;;;24.40;;
31734;SDS011;18313;48.518;9.124;2023-02-11T06:50:02;47.20;;;24.20;;
31734;SDS011;18313;48.518;9.124;2023-02-11T06:52:29;46.92;;;24.60;;
31734;SDS011;18313;48.518;9.124;2023-02-11T06:54:56;48.53;;;23.58;;
31734;SDS011;18313;48.518;9.124;2023-02-11T06:57:23;44.45;;;22.50;;
31734;SDS011;18313;48.518;9.124;2023-02-11T06:59:50;45.35;;;23.23;;
31734;SDS011;18313;48.518;9.124;2023-02-11T07:02:17;42.25;;;22.58;;
31734;SDS011;18313;48.518;9.124;2023-02-11T07:04:46;44.63;;;22.70;;
31734;SDS011;18313;48.518;9.124;2023-02-11T07:07:13;44.70;;;22.85;;
31734;SDS011;18313;48.518;9.124;2023-02-11T07:09:41;43.47;;;21.60;;
31734;SDS011;18313;48.518;9.124;2023-02-11T07:12:08;42.63;;;22.80;;
31734;SDS011;18313;48.518;9.124;2023-02-11T07:14:36;49.17;;;23.52;;
31734;SDS011;18313;48.518;9.124;2023-02-11T07:17:04;43.00;;;22.77;;
31734;SDS011;18313;48.518;9.124;2023-02-11T07:19:31;45.45;;;22.83;;
31734;SDS011;18313;48.518;9.124;2023-02-11T07:21:58;46.35;;;23.30;;
31734;SDS011;18313;48.518;9.124;2023-02-11T07:24:25;49.97;;;23.85;;
31734;SDS011;18313;48.518;9.124;2023-02-11T07:26:52;49.88;;;23.73;;
31734;SDS011;18313;48.518;9.124;2023-02-11T07:29:20;42.90;;;22.65;;
31734;SDS011;18313;48.518;9.124;2023-02-11T07:31:47;43.15;;;22.83;;
31734;SDS011;18313;48.518;9.124;2023-02-11T07:34:14;41.03;;;22.73;;
31734;SDS011;18313;48.518;9.124;2023-02-11T07:36:41;43.30;;;23.05;;
31734;SDS011;18313;48.518;9.124;2023-02-11T07:39:10;41.90;;;23.02;;
31734;SDS011;18313;48.518;9.124;2023-02-11T07:41:37;43.58;;;22.48;;
31734;SDS011;18313;48.518;9.124;2023-02-11T07:44:04;38.03;;;21.95;;
31734;SDS011;18313;48.518;9.124;2023-02-11T07:46:32;43.40;;;21.75;;
31734;SDS011;18313;48.518;9.124;2023-02-11T07:49:01;45.67;;;22.73;;
31734;SDS011;18313;48.518;9.124;2023-02-11T07:51:29;47.15;;;23.63;;
31734;SDS011;18313;48.518;9.124;2023-02-11T07:53:57;43.83;;;22.83;;
31734;SDS011;18313;48.518;9.124;2023-02-11T07:56:25;41.20;;;22.55;;
31734;SDS011;18313;48.518;9.124;2023-02-11T07:58:53;40.40;;;21.70;;
31734;SDS011;18313;48.518;9.124;2023-02-11T08:01:22;42.65;;;22.63;;
31734;SDS011;18313;48.518;9.124;2023-02-11T08:03:54;44.53;;;21.20;;
31734;SDS011;18313;48.518;9.124;2023-02-11T08:06:24;48.17;;;22.73;;
31734;SDS011;18313;48.518;9.124;2023-02-11T08:08:53;43.83;;;23.27;;
31734;SDS011;18313;48.518;9.124;2023-02-11T08:11:21;44.60;;;22.60;;
31734;SDS011;18313;48.518;9.124;2023-02-11T08:13:52;48.40;;;23.95;;
31734;SDS011;18313;48.518;9.124;2023-02-11T08:16:24;44.13;;;22.98;;
31734;SDS011;18313;48.518;9.124;2023-02-11T08:18:57;45.72;;;21.90;;
31734;SDS011;18313;48.518;9.124;2023-02-11T08:21:25;39.90;;;21.40;;
31734;SDS011;18313;48.518;9.124;2023-02-11T08:23:53;41.08;;;21.52;;
31734;SDS011;18313;48.518;9.124;2023-02-11T08:26:24;41.97;;;21.25;;
31734;SDS011;18313;48.518;9.124;2023-02-11T08:28:55;45.78;;;22.83;;
31734;SDS011;18313;48.518;9.124;2023-02-11T08:31:25;45.55;;;23.08;;
31734;SDS011;18313;48.518;9.124;2023-02-11T08:33:54;45.03;;;22.48;;
31734;SDS011;18313;48.518;9.124;2023-02-11T08:36:26;45.33;;;22.90;;
31734;SDS011;18313;48.518;9.124;2023-02-11T08:38:56;42.00;;;22.35;;
31734;SDS011;18313;48.518;9.124;2023-02-11T08:41:43;42.75;;;21.52;;
31734;SDS011;18313;48.518;9.124;2023-02-11T08:44:11;37.33;;;20.83;;
31734;SDS011;18313;48.518;9.124;2023-02-11T08:46:38;42.15;;;20.95;;
31734;SDS011;18313;48.518;9.124;2023-02-11T08:49:05;38.75;;;19.65;;
31734;SDS011;18313;48.518;9.124;2023-02-11T08:51:32;37.83;;;20.50;;
31734;SDS011;18313;48.518;9.124;2023-02-11T08:54:00;40.92;;;21.10;;
31734;SDS011;18313;48.518;9.124;2023-02-11T08:56:27;42.00;;;22.58;;
31734;SDS011;18313;48.518;9.124;2023-02-11T08:58:56;41.88;;;22.17;;
31734;SDS011;18313;48.518;9.124;2023-02-11T09:01:25;41.95;;;22.35;;
31734;SDS011;18313;48.518;9.124;2023-02-11T09:03:55;38.15;;;20.08;;
31734;SDS011;18313;48.518;9.124;2023-02-11T09:06:23;36.42;;;20.15;;
31734;SDS011;18313;48.518;9.124;2023-02-11T09:08:53;40.25;;;22.33;;
31734;SDS011;18313;48.518;9.124;2023-02-11T09:11:29;36.88;;;19.73;;
31734;SDS011;18313;48.518;9.124;2023-02-11T09:13:58;38.72;;;20.83;;
31734;SDS011;18313;48.518;9.124;2023-02-11T09:16:27;40.83;;;20.73;;
31734;SDS011;18313;48.518;9.124;2023-02-11T09:18:56;37.83;;;21.58;;
31734;SDS011;18313;48.518;9.124;2023-02-11T09:21:24;40.90;;;21.27;;
31734;SDS011;18313;48.518;9.124;2023-02-11T09:23:52;38.85;;;21.13;;
31734;SDS011;18313;48.518;9.124;2023-02-11T09:26:20;38.03;;;21.48;;
31734;SDS011;18313;48.518;9.124;2023-02-11T09:28:50;38.47;;;21.42;;
31734;SDS011;18313;48.518;9.124;2023-02-11T09:31:18;37.10;;;19.58;;
31734;SDS011;18313;48.518;9.124;2023-02-11T09:33:48;42.25;;;22.40;;
31734;SDS011;18313;48.518;9.124;2023-02-11T09:36:20;42.20;;;21.73;;
31734;SDS011;18313;48.518;9.124;2023-02-11T09:38:51;41.40;;;21.73;;
31734;SDS011;18313;48.518;9.124;2023-02-11T09:41:24;37.88;;;20.20;;
31734;SDS011;18313;48.518;9.124;2023-02-11T09:44:20;34.13;;;20.48;;
31734;SDS011;18313;48.518;9.124;2023-02-11T09:46:54;46.60;;;21.60;;
31734;SDS011;18313;48.518;9.124;2023-02-11T09:52:23;32.88;;;18.17;;
31734;SDS011;18313;48.518;9.124;2023-02-11T09:55:14;37.88;;;19.55;;
31734;SDS011;18313;48.518;9.124;2023-02-11T09:57:52;37.05;;;20.10;;
31734;SDS011;18313;48.518;9.124;2023-02-11T10:00:21;37.38;;;19.80;;
31734;SDS011;18313;48.518;9.124;2023-02-11T10:05:50;31.92;;;19.02;;
31734;SDS011;18313;48.518;9.124;2023-02-11T10:08:52;36.45;;;19.40;;
31734;SDS011;18313;48.518;9.124;2023-02-11T10:11:33;35.55;;;18.75;;
31734;SDS011;18313;48.518;9.124;2023-02-11T10:14:09;33.80;;;18.45;;
31734;SDS011;18313;48.518;9.124;2023-02-11T10:22:26;33.65;;;18.73;;
31734;SDS011;18313;48.518;9.124;2023-02-11T10:24:58;30.63;;;17.52;;
31734;SDS011;18313;48.518;9.124;2023-02-11T10:27:33;32.92;;;18.63;;
31734;SDS011;18313;48.518;9.124;2023-02-11T10:30:21;30.20;;;18.17;;
31734;SDS011;18313;48.518;9.124;2023-02-11T10:33:15;30.98;;;18.02;;
31734;SDS011;18313;48.518;9.124;2023-02-11T10:35:47;29.65;;;16.85;;
31734;SDS011;18313;48.518;9.124;2023-02-11T10:38:15;33.83;;;17.80;;
31734;SDS011;18313;48.518;9.124;2023-02-11T10:40:42;29.80;;;17.73;;
31734;SDS011;18313;48.518;9.124;2023-02-11T10:43:11;26.40;;;16.85;;
31734;SDS011;18313;48.518;9.124;2023-02-11T10:45:42;29.02;;;16.98;;
31734;SDS011;18313;48.518;9.124;2023-02-11T10:51:07;35.13;;;17.88;;
31734;SDS011;18313;48.518;9.124;2023-02-11T10:53:43;32.75;;;17.33;;
31734;SDS011;18313;48.518;9.124;2023-02-11T10:56:13;31.35;;;17.25;;
31734;SDS011;18313;48.518;9.124;2023-02-11T10:58:55;31.35;;;18.17;;
31734;SDS011;18313;48.518;9.124;2023-02-11T11:04:23;34.22;;;16.73;;
31734;SDS011;18313;48.518;9.124;2023-02-11T11:09:43;28.48;;;16.73;;
31734;SDS011;18313;48.518;9.124;2023-02-11T11:12:25;25.60;;;15.65;;
31734;SDS011;18313;48.518;9.124;2023-02-11T11:17:39;30.30;;;16.50;;
31734;SDS011;18313;48.518;9.124;2023-02-11T11:20:13;30.05;;;15.40;;
31734;SDS011;18313;48.518;9.124;2023-02-11T11:25:34;25.38;;;14.75;;
31734;SDS011;18313;48.518;9.124;2023-02-11T11:28:15;22.30;;;14.23;;
31734;SDS011;18313;48.518;9.124;2023-02-11T11:30:52;28.00;;;16.15;;
31734;SDS011;18313;48.518;9.124;2023-02-11T11:33:26;23.67;;;13.40;;
31734;SDS011;18313;48.518;9.124;2023-02-11T11:38:34;22.27;;;11.75;;
31734;SDS011;18313;48.518;9.124;2023-02-11T11:46:22;17.17;;;9.20;;
31734;SDS011;18313;48.518;9.124;2023-02-11T11:48:55;18.17;;;8.98;;
31734;SDS011;18313;48.518;9.124;2023-02-11T11:51:29;14.23;;;7.75;;
31734;SDS011;18313;48.518;9.124;2023-02-11T11:54:05;15.18;;;8.48;;
31734;SDS011;18313;48.518;9.124;2023-02-11T11:56:39;14.77;;;8.50;;
31734;SDS011;18313;48.518;9.124;2023-02-11T11:59:14;14.43;;;8.20;;
31734;SDS011;18313;48.518;9.124;2023-02-11T12:05:08;14.68;;;8.35;;
31734;SDS011;18313;48.518;9.124;2023-02-11T12:07:57;13.82;;;7.38;;
31734;SDS011;18313;48.518;9.124;2023-02-11T12:11:21;11.68;;;6.75;;
31734;SDS011;18313;48.518;9.124;2023-02-11T12:17:32;12.55;;;7.30;;
31734;SDS011;18313;48.518;9.124;2023-02-11T12:20:21;11.95;;;6.93;;
31734;SDS011;18313;48.518;9.124;2023-02-11T12:22:56;13.30;;;7.32;;
31734;SDS011;18313;48.518;9.124;2023-02-11T12:26:04;10.82;;;6.85;;
31734;SDS011;18313;48.518;9.124;2023-02-11T12:28:52;12.75;;;7.30;;
31734;SDS011;18313;48.518;9.124;2023-02-11T12:37:02;18.25;;;7.13;;
31734;SDS011;18313;48.518;9.124;2023-02-11T12:39:45;14.73;;;7.97;;
31734;SDS011;18313;48.518;9.124;2023-02-11T12:56:47;10.52;;;6.60;;
31734;SDS011;18313;48.518;9.124;2023-02-11T12:59:32;13.90;;;6.78;;
31734;SDS011;18313;48.518;9.124;2023-02-11T13:02:17;12.88;;;6.32;;
31734;SDS011;18313;48.518;9.124;2023-02-11T13:05:01;12.48;;;6.10;;
31734;SDS011;18313;48.518;9.124;2023-02-11T13:12:44;11.48;;;5.75;;
31734;SDS011;18313;48.518;9.124;2023-02-11T13:15:32;9.02;;;5.32;;
31734;SDS011;18313;48.518;9.124;2023-02-11T13:18:10;11.13;;;6.30;;
31734;SDS011;18313;48.518;9.124;2023-02-11T13:20:44;10.57;;;5.60;;
31734;SDS011;18313;48.518;9.124;2023-02-11T13:23:22;9.30;;;5.63;;
31734;SDS011;18313;48.518;9.124;2023-02-11T13:28:47;9.55;;;5.47;;
31734;SDS011;18313;48.518;9.124;2023-02-11T13:31:23;8.83;;;5.27;;
31734;SDS011;18313;48.518;9.124;2023-02-11T13:33:53;10.73;;;5.05;;
31734;SDS011;18313;48.518;9.124;2023-02-11T13:36:21;9.30;;;5.57;;
31734;SDS011;18313;48.518;9.124;2023-02-11T13:38:57;8.75;;;5.53;;
31734;SDS011;18313;48.518;9.124;2023-02-11T13:41:30;10.63;;;5.90;;
31734;SDS011;18313;48.518;9.124;2023-02-11T13:49:25;11.75;;;6.40;;
31734;SDS011;18313;48.518;9.124;2023-02-11T13:51:56;9.05;;;5.50;;
31734;SDS011;18313;48.518;9.124;2023-02-11T13:54:27;12.00;;;5.50;;
31734;SDS011;18313;48.518;9.124;2023-02-11T13:57:14;10.05;;;5.78;;
31734;SDS011;18313;48.518;9.124;2023-02-11T13:59:51;11.23;;;5.38;;
31734;SDS011;18313;48.518;9.124;2023-02-11T14:02:33;10.40;;;5.95;;
31734;SDS011;18313;48.518;9.124;2023-02-11T14:11:09;9.60;;;5.85;;
31734;SDS011;18313;48.518;9.124;2023-02-11T14:19:33;9.93;;;5.90;;
31734;SDS011;18313;48.518;9.124;2023-02-11T14:29:56;11.48;;;5.38;;
31734;SDS011;18313;48.518;9.124;2023-02-11T14:35:22;9.77;;;5.13;;
31734;SDS011;18313;48.518;9.124;2023-02-11T14:43:39;9.20;;;5.40;;
31734;SDS011;18313;48.518;9.124;2023-02-11T14:46:16;8.70;;;5.20;;
31734;SDS011;18313;48.518;9.124;2023-02-11T14:48:45;9.27;;;5.28;;
31734;SDS011;18313;48.518;9.124;2023-02-11T14:53:46;11.27;;;7.03;;
31734;SDS011;18313;48.518;9.124;2023-02-11T14:56:23;10.77;;;6.32;;
31734;SDS011;18313;48.518;9.124;2023-02-11T14:58:52;12.93;;;6.95;;
31734;SDS011;18313;48.518;9.124;2023-02-11T15:03:57;13.25;;;7.93;;
31734;SDS011;18313;48.518;9.124;2023-02-11T15:06:27;16.75;;;8.75;;
31734;SDS011;18313;48.518;9.124;2023-02-11T15:09:04;19.10;;;9.90;;
31734;SDS011;18313;48.518;9.124;2023-02-11T15:11:42;16.85;;;10.13;;
31734;SDS011;18313;48.518;9.124;2023-02-11T15:14:26;18.48;;;10.60;;
31734;SDS011;18313;48.518;9.124;2023-02-11T15:17:02;18.30;;;10.40;;
31734;SDS011;18313;48.518;9.124;2023-02-11T15:19:34;18.85;;;11.13;;
31734;SDS011;18313;48.518;9.124;2023-02-11T15:22:13;18.83;;;11.32;;
31734;SDS011;18313;48.518;9.124;2023-02-11T15:24:59;19.98;;;11.73;;
31734;SDS011;18313;48.518;9.124;2023-02-11T15:27:26;18.67;;;11.20;;
31734;SDS011;18313;48.518;9.124;2023-02-11T15:30:07;17.95;;;10.52;;
31734;SDS011;18313;48.518;9.124;2023-02-11T15:35:27;21.70;;;11.95;;
31734;SDS011;18313;48.518;9.124;2023-02-11T15:38:03;20.45;;;12.32;;
31734;SDS011;18313;48.518;9.124;2023-02-11T15:40:32;20.40;;;12.00;;
31734;SDS011;18313;48.518;9.124;2023-02-11T15:43:02;18.83;;;11.00;;
31734;SDS011;18313;48.518;9.124;2023-02-11T15:45:38;21.00;;;12.57;;
31734;SDS011;18313;48.518;9.124;2023-02-11T15:48:20;19.45;;;11.40;;
31734;SDS011;18313;48.518;9.124;2023-02-11T15:50:57;21.10;;;11.48;;
31734;SDS011;18313;48.518;9.124;2023-02-11T15:53:38;19.00;;;11.43;;
31734;SDS011;18313;48.518;9.124;2023-02-11T15:56:11;18.55;;;10.98;;
31734;SDS011;18313;48.518;9.124;2023-02-11T15:58:52;17.20;;;10.18;;
31734;SDS011;18313;48.518;9.124;2023-02-11T16:01:28;15.10;;;9.98;;
31734;SDS011;18313;48.518;9.124;2023-02-11T16:03:59;24.17;;;10.82;;
31734;SDS011;18313;48.518;9.124;2023-02-11T16:06:38;16.65;;;9.95;;
31734;SDS011;18313;48.518;9.124;2023-02-11T16:17:01;15.15;;;9.25;;
31734;SDS011;18313;48.518;9.124;2023-02-11T16:19:44;19.50;;;9.70;;
31734;SDS011;18313;48.518;9.124;2023-02-11T16:22:15;14.82;;;9.00;;
31734;SDS011;18313;48.518;9.124;2023-02-11T16:24:46;19.55;;;9.07;;
31734;SDS011;18313;48.518;9.124;2023-02-11T16:27:22;15.75;;;9.38;;
31734;SDS011;18313;48.518;9.124;2023-02-11T16:30:20;13.95;;;8.68;;
31734;SDS011;18313;48.518;9.124;2023-02-11T16:32:59;17.70;;;9.95;;
31734;SDS011;18313;48.518;9.124;2023-02-11T16:35:27;21.23;;;10.40;;
31734;SDS011;18313;48.518;9.124;2023-02-11T16:37:54;17.02;;;9.60;;
31734;SDS011;18313;48.518;9.124;2023-02-11T16:40:21;16.70;;;9.68;;
31734;SDS011;18313;48.518;9.124;2023-02-11T16:42:51;17.80;;;10.00;;
31734;SDS011;18313;48.518;9.124;2023-02-11T16:45:19;24.73;;;10.43;;
31734;SDS011;18313;48.518;9.124;2023-02-11T16:47:46;16.98;;;10.00;;
31734;SDS011;18313;48.518;9.124;2023-02-11T16:50:20;17.95;;;10.93;;
31734;SDS011;18313;48.518;9.124;2023-02-11T16:52:48;19.90;;;10.75;;
31734;SDS011;18313;48.518;9.124;2023-02-11T16:55:18;17.85;;;10.25;;
31734;SDS011;18313;48.518;9.124;2023-02-11T16:57:47;18.20;;;10.55;;
31734;SDS011;18313;48.518;9.124;2023-02-11T17:00:17;19.92;;;11.18;;
31734;SDS011;18313;48.518;9.124;2023-02-11T17:02:45;18.52;;;10.75;;
31734;SDS011;18313;48.518;9.124;2023-02-11T17:05:16;22.08;;;10.48;;
31734;SDS011;18313;48.518;9.124;2023-02-11T17:07:46;17.55;;;10.00;;
31734;SDS011;18313;48.518;9.124;2023-02-11T17:10:17;17.48;;;9.98;;
31734;SDS011;18313;48.518;9.124;2023-02-11T17:12:46;20.70;;;11.27;;
31734;SDS011;18313;48.518;9.124;2023-02-11T17:15:14;20.42;;;11.40;;
31734;SDS011;18313;48.518;9.124;2023-02-11T17:17:41;22.67;;;12.27;;
31734;SDS011;18313;48.518;9.124;2023-02-11T17:20:13;21.02;;;11.88;;